createdAt,value
2023-05-14T00:00:59.757Z,95.34
2023-05-14T00:01:59.690Z,94.83
2023-05-14T00:02:59.798Z,95.79
2023-05-14T00:03:59.807Z,94.77
2023-05-14T00:04:59.679Z,94.77
2023-05-14T00:05:59.774Z,95.18
2023-05-14T00:06:59.643Z,95.07
2023-05-14T00:07:59.625Z,95.18
2023-05-14T00:08:59.628Z,95.07
2023-05-14T00:09:59.628Z,96.20
2023-05-14T00:10:59.775Z,95.79
2023-05-14T00:11:59.595Z,94.98
2023-05-14T00:12:59.616Z,94.77
2023-05-14T00:13:59.573Z,94.98
2023-05-14T00:14:59.613Z,95.23
2023-05-14T00:15:59.670Z,95.12
2023-05-14T00:16:59.599Z,95.32
2023-05-14T00:17:59.597Z,95.94
2023-05-14T00:18:59.581Z,95.89
2023-05-14T00:19:59.539Z,96.50
2023-05-14T00:20:59.580Z,97.12
2023-05-14T00:21:59.516Z,97.12
2023-05-14T00:22:59.541Z,97.12
2023-05-14T00:23:59.530Z,96.70
2023-05-14T00:24:59.526Z,96.50
2023-05-14T00:25:59.498Z,97.16
2023-05-14T00:26:59.526Z,97.57
2023-05-14T00:27:59.500Z,97.57
2023-05-14T00:28:59.493Z,98.29
2023-05-14T00:29:59.506Z,98.25
2023-05-14T00:30:59.500Z,98.50
2023-05-14T00:31:59.453Z,98.60
2023-05-14T00:32:59.487Z,98.70
2023-05-14T00:33:59.456Z,98.39
2023-05-14T00:34:59.463Z,98.65
2023-05-14T00:35:59.440Z,99.99
2023-05-14T00:36:59.484Z,98.91
2023-05-14T00:37:59.409Z,98.91
2023-05-14T00:38:59.422Z,98.91
2023-05-14T00:39:59.414Z,99.11
2023-05-14T00:40:59.422Z,99.01
2023-05-14T00:41:59.429Z,99.16
2023-05-14T00:42:59.419Z,98.85
2023-05-14T00:43:59.395Z,98.96
2023-05-14T00:44:59.390Z,98.65
2023-05-14T00:45:59.395Z,99.05
2023-05-14T00:46:59.498Z,99.98
2023-05-14T00:47:59.356Z,99.99
2023-05-14T00:48:59.367Z,99.21
2023-05-14T00:49:59.328Z,99.32
2023-05-14T00:50:59.382Z,99.11
2023-05-14T00:51:59.320Z,98.55
2023-05-14T00:52:59.346Z,98.35
2023-05-14T00:53:59.306Z,97.88
2023-05-14T00:54:59.324Z,98.39
2023-05-14T00:55:59.297Z,98.29
2023-05-14T00:56:59.322Z,98.91
2023-05-14T00:57:59.325Z,99.01
2023-05-14T00:58:59.309Z,99.01
2023-05-14T00:59:59.275Z,98.50
2023-05-14T01:00:59.310Z,98.50
2023-05-14T01:01:59.258Z,98.50
2023-05-14T01:02:59.414Z,98.65
2023-05-14T01:03:59.409Z,99.37
2023-05-14T01:04:59.300Z,99.47
2023-05-14T01:05:59.229Z,99.57
2023-05-14T01:06:59.248Z,99.57
2023-05-14T01:07:59.253Z,99.99
2023-05-14T01:08:59.259Z,99.99
2023-05-14T01:09:59.220Z,99.99
2023-05-14T01:10:59.220Z,99.99
2023-05-14T01:11:59.200Z,99.99
2023-05-14T01:12:59.244Z,99.99
2023-05-14T01:13:59.214Z,99.77
2023-05-14T01:14:59.198Z,99.99
2023-05-14T01:15:59.252Z,99.99
2023-05-14T01:16:59.269Z,99.88
2023-05-14T01:17:59.253Z,99.98
2023-05-14T01:18:59.217Z,99.99
2023-05-14T01:19:59.150Z,99.99
2023-05-14T01:20:59.175Z,99.99
2023-05-14T01:21:59.154Z,99.82
2023-05-14T01:22:59.159Z,99.41
2023-05-14T01:23:59.192Z,99.99
2023-05-14T01:24:59.145Z,99.99
2023-05-14T01:25:59.147Z,99.99
2023-05-14T01:26:59.149Z,99.99
2023-05-14T01:27:59.108Z,99.99
2023-05-14T01:28:59.125Z,99.99
2023-05-14T01:29:59.135Z,99.99
2023-05-14T01:30:59.128Z,99.88
2023-05-14T01:31:59.116Z,99.37
2023-05-14T01:32:59.174Z,98.96
2023-05-14T01:33:59.087Z,99.26
2023-05-14T01:34:59.105Z,99.10
2023-05-14T01:35:59.096Z,99.98
2023-05-14T01:36:59.091Z,99.62
2023-05-14T01:37:59.044Z,99.93
2023-05-14T01:38:59.061Z,99.99
2023-05-14T01:39:59.028Z,99.99
2023-05-14T01:40:59.056Z,99.99
2023-05-14T01:41:59.026Z,99.99
2023-05-14T01:42:59.020Z,99.99
2023-05-14T01:43:59.023Z,99.99
2023-05-14T01:44:59.019Z,99.99
2023-05-14T01:45:59.057Z,99.99
2023-05-14T01:46:59.000Z,99.99
2023-05-14T01:47:59.028Z,99.99
2023-05-14T01:48:59.007Z,99.99
2023-05-14T01:49:58.974Z,99.99
2023-05-14T01:50:58.980Z,99.99
2023-05-14T01:51:58.971Z,99.99
2023-05-14T01:52:58.961Z,99.99
2023-05-14T01:53:58.957Z,99.99
2023-05-14T01:54:58.953Z,99.99
2023-05-14T01:55:58.958Z,99.99
2023-05-14T01:56:58.963Z,99.99
2023-05-14T01:57:58.954Z,99.99
2023-05-14T01:58:58.916Z,99.88
2023-05-14T01:59:58.889Z,99.99
2023-05-14T02:00:58.963Z,99.99
2023-05-14T02:01:58.984Z,99.99
2023-05-14T02:02:58.970Z,99.99
2023-05-14T02:03:58.939Z,99.99
2023-05-14T02:04:58.923Z,99.99
2023-05-14T02:05:58.884Z,99.93
2023-05-14T02:06:58.857Z,99.83
2023-05-14T02:07:58.882Z,99.99
2023-05-14T02:08:58.850Z,99.99
2023-05-14T02:09:58.830Z,99.99
2023-05-14T02:10:58.837Z,99.99
2023-05-14T02:11:58.825Z,99.99
2023-05-14T02:12:58.874Z,99.99
2023-05-14T02:13:58.842Z,99.99
2023-05-14T02:14:58.809Z,99.98
2023-05-14T02:15:58.837Z,99.99
2023-05-14T02:16:58.824Z,99.88
2023-05-14T02:17:58.831Z,99.99
2023-05-14T02:18:58.855Z,99.99
2023-05-14T02:19:58.842Z,99.99
2023-05-14T02:20:58.809Z,99.99
2023-05-14T02:21:58.876Z,99.99
2023-05-14T02:22:58.823Z,99.99
2023-05-14T02:23:58.847Z,99.99
2023-05-14T02:24:58.849Z,99.99
2023-05-14T02:25:58.723Z,99.99
2023-05-14T02:26:58.757Z,99.99
2023-05-14T02:27:58.740Z,99.99
2023-05-14T02:28:58.737Z,99.99
2023-05-14T02:29:58.714Z,99.99
2023-05-14T02:30:58.738Z,99.99
2023-05-14T02:31:58.714Z,99.99
2023-05-14T02:32:58.759Z,99.99
2023-05-14T02:33:58.699Z,99.99
2023-05-14T02:34:58.703Z,99.99
2023-05-14T02:35:58.674Z,99.99
2023-05-14T02:36:58.682Z,99.99
2023-05-14T02:37:58.642Z,99.99
2023-05-14T02:38:58.653Z,99.99
2023-05-14T02:39:58.703Z,99.99
2023-05-14T02:40:58.641Z,99.99
2023-05-14T02:41:58.664Z,99.99
2023-05-14T02:42:58.640Z,99.99
2023-05-14T02:43:58.607Z,99.99
2023-05-14T02:44:58.626Z,99.99
2023-05-14T02:45:58.629Z,99.99
2023-05-14T02:46:58.653Z,99.99
2023-05-14T02:47:58.633Z,99.99
2023-05-14T02:48:58.605Z,99.99
2023-05-14T02:49:58.567Z,99.99
2023-05-14T02:50:58.621Z,99.99
2023-05-14T02:51:58.564Z,99.99
2023-05-14T02:52:58.563Z,99.99
2023-05-14T02:53:58.552Z,99.99
2023-05-14T02:54:58.565Z,99.99
2023-05-14T02:55:58.545Z,99.99
2023-05-14T02:56:58.542Z,99.99
2023-05-14T02:57:58.513Z,99.99
2023-05-14T02:58:58.566Z,99.99
2023-05-14T02:59:58.523Z,99.99
2023-05-14T03:00:58.562Z,99.99
2023-05-14T03:01:58.540Z,99.99
2023-05-14T03:02:58.520Z,99.99
2023-05-14T03:03:58.479Z,99.99
2023-05-14T03:04:58.540Z,99.99
2023-05-14T03:05:58.461Z,99.99
2023-05-14T03:06:58.496Z,99.99
2023-05-14T03:07:58.465Z,99.99
2023-05-14T03:08:58.460Z,99.99
2023-05-14T03:09:58.434Z,99.99
2023-05-14T03:10:58.451Z,99.99
2023-05-14T03:11:58.450Z,99.99
2023-05-14T03:12:58.447Z,99.99
2023-05-14T03:13:58.405Z,99.99
2023-05-14T03:14:58.436Z,99.99
2023-05-14T03:15:58.410Z,99.99
2023-05-14T03:16:58.469Z,99.99
2023-05-14T03:17:58.431Z,99.99
2023-05-14T03:18:58.465Z,99.99
2023-05-14T03:19:58.378Z,99.99
2023-05-14T03:20:58.400Z,99.99
2023-05-14T03:21:58.400Z,99.99
2023-05-14T03:22:58.417Z,99.99
2023-05-14T03:23:58.357Z,99.99
2023-05-14T03:24:58.374Z,99.99
2023-05-14T03:25:58.352Z,99.99
2023-05-14T03:26:58.349Z,99.99
2023-05-14T03:27:58.328Z,99.99
2023-05-14T03:28:58.349Z,99.99
2023-05-14T03:29:58.304Z,99.99
2023-05-14T03:30:58.409Z,99.99
2023-05-14T03:31:58.316Z,99.99
2023-05-14T03:32:58.375Z,99.99
2023-05-14T03:33:58.317Z,99.99
2023-05-14T03:34:58.318Z,99.99
2023-05-14T03:35:58.279Z,99.99
2023-05-14T03:36:58.277Z,99.99
2023-05-14T03:37:58.265Z,99.99
2023-05-14T03:38:58.289Z,99.99
2023-05-14T03:39:58.264Z,99.99
2023-05-14T03:40:58.264Z,99.99
2023-05-14T03:41:58.222Z,99.99
2023-05-14T03:42:58.263Z,99.99
2023-05-14T03:43:58.217Z,99.99
2023-05-14T03:44:58.227Z,99.99
2023-05-14T03:45:58.226Z,99.99
2023-05-14T03:46:58.211Z,99.99
2023-05-14T03:47:58.340Z,99.99
2023-05-14T03:48:58.351Z,99.99
2023-05-14T03:49:58.196Z,99.99
2023-05-14T03:50:58.179Z,99.99
2023-05-14T03:51:58.182Z,99.99
2023-05-14T03:52:58.174Z,99.99
2023-05-14T03:53:58.138Z,99.99
2023-05-14T03:54:58.168Z,99.99
2023-05-14T03:55:58.174Z,99.99
2023-05-14T03:56:58.134Z,99.99
2023-05-14T03:57:58.126Z,99.99
2023-05-14T03:58:58.152Z,99.99
2023-05-14T03:59:58.105Z,99.99
2023-05-14T04:00:58.142Z,99.99
2023-05-14T04:01:58.085Z,99.99
2023-05-14T04:02:58.250Z,99.99
2023-05-14T04:03:58.166Z,99.99
2023-05-14T04:04:58.117Z,99.99
2023-05-14T04:05:58.057Z,99.99
2023-05-14T04:06:58.109Z,99.99
2023-05-14T04:07:58.053Z,99.99
2023-05-14T04:08:58.089Z,99.99
2023-05-14T04:09:58.034Z,99.99
2023-05-14T04:10:58.039Z,99.43
2023-05-14T04:11:58.044Z,98.16
2023-05-14T04:12:58.022Z,97.74
2023-05-14T04:13:58.011Z,96.72
2023-05-14T04:14:58.033Z,97.73
2023-05-14T04:15:58.007Z,97.78
2023-05-14T04:16:59.533Z,98.60
2023-05-14T04:17:58.073Z,99.32
2023-05-14T04:18:58.023Z,99.99
2023-05-14T04:19:57.998Z,99.93
2023-05-14T04:20:58.010Z,99.83
2023-05-14T04:21:57.980Z,99.99
2023-05-14T04:22:57.959Z,99.32
2023-05-14T04:23:57.959Z,99.99
2023-05-14T04:24:57.970Z,99.99
2023-05-14T04:25:57.955Z,99.99
2023-05-14T04:26:57.934Z,99.99
2023-05-14T04:27:57.920Z,99.99
2023-05-14T04:28:57.928Z,99.99
2023-05-14T04:29:57.921Z,99.99
2023-05-14T04:30:57.934Z,99.99
2023-05-14T04:31:57.920Z,99.99
2023-05-14T04:32:57.987Z,99.99
2023-05-14T04:33:57.883Z,99.99
2023-05-14T04:34:57.906Z,99.99
2023-05-14T04:35:57.867Z,99.99
2023-05-14T04:36:57.880Z,99.99
2023-05-14T04:37:57.849Z,99.99
2023-05-14T04:38:57.876Z,99.99
2023-05-14T04:39:57.867Z,99.99
2023-05-14T04:40:57.852Z,99.99
2023-05-14T04:41:57.829Z,99.99
2023-05-14T04:42:57.840Z,99.99
2023-05-14T04:43:57.810Z,99.99
2023-05-14T04:44:57.853Z,99.99
2023-05-14T04:45:57.814Z,99.99
2023-05-14T04:46:57.799Z,99.99
2023-05-14T04:47:57.870Z,99.99
2023-05-14T04:48:57.801Z,99.99
2023-05-14T04:49:57.763Z,99.99
2023-05-14T04:50:57.789Z,99.99
2023-05-14T04:51:57.767Z,99.99
2023-05-14T04:52:57.757Z,99.99
2023-05-14T04:53:57.754Z,99.93
2023-05-14T04:54:57.890Z,99.99
2023-05-14T04:55:57.974Z,99.99
2023-05-14T04:56:57.909Z,99.52
2023-05-14T04:57:57.805Z,99.99
2023-05-14T04:58:57.814Z,99.99
2023-05-14T04:59:57.777Z,99.83
2023-05-14T05:00:57.874Z,99.99
2023-05-14T05:01:57.776Z,99.27
2023-05-14T05:02:57.793Z,99.07
2023-05-14T05:03:57.803Z,98.96
2023-05-14T05:04:57.738Z,98.55
2023-05-14T05:05:58.691Z,98.55
2023-05-14T05:06:57.662Z,98.14
2023-05-14T05:07:57.686Z,98.14
2023-05-14T05:08:58.081Z,98.20
2023-05-14T05:09:57.651Z,98.30
2023-05-14T05:10:57.671Z,98.20
2023-05-14T05:11:57.627Z,97.89
2023-05-14T05:12:57.693Z,97.58
2023-05-14T05:13:57.625Z,97.54
2023-05-14T05:14:57.633Z,97.33
2023-05-14T05:15:57.623Z,96.41
2023-05-14T05:16:57.619Z,96.10
2023-05-14T05:17:57.637Z,96.62
2023-05-14T05:18:57.655Z,95.90
2023-05-14T05:19:57.574Z,96.10
2023-05-14T05:20:57.582Z,96.10
2023-05-14T05:21:57.554Z,96.72
2023-05-14T05:22:57.574Z,96.37
2023-05-14T05:23:57.533Z,97.60
2023-05-14T05:24:57.572Z,97.80
2023-05-14T05:25:57.548Z,96.88
2023-05-14T05:26:57.561Z,97.08
2023-05-14T05:27:57.545Z,96.26
2023-05-14T05:28:57.535Z,96.53
2023-05-14T05:29:57.530Z,96.42
2023-05-14T05:30:57.529Z,95.87
2023-05-14T05:31:57.494Z,95.05
2023-05-14T05:32:57.629Z,94.90
2023-05-14T05:33:57.494Z,94.14
2023-05-14T05:34:57.536Z,93.06
2023-05-14T05:35:57.457Z,93.88
2023-05-14T05:36:57.494Z,94.08
2023-05-14T05:37:58.596Z,94.18
2023-05-14T05:38:57.450Z,94.59
2023-05-14T05:39:57.450Z,95.10
2023-05-14T05:40:57.475Z,95.41
2023-05-14T05:41:57.440Z,94.90
2023-05-14T05:42:57.419Z,94.39
2023-05-14T05:43:57.404Z,94.49
2023-05-14T05:44:57.410Z,94.29
2023-05-14T05:45:57.420Z,94.45
2023-05-14T05:46:57.652Z,94.75
2023-05-14T05:47:57.468Z,94.24
2023-05-14T05:48:57.406Z,93.28
2023-05-14T05:49:57.368Z,93.01
2023-05-14T05:50:57.372Z,93.18
2023-05-14T05:52:04.369Z,93.18
2023-05-14T05:52:57.351Z,93.03
2023-05-14T05:53:57.323Z,92.93
2023-05-14T05:54:57.349Z,92.21
2023-05-14T05:55:57.300Z,92.27
2023-05-14T05:56:57.312Z,92.07
2023-05-14T05:57:57.306Z,91.82
2023-05-14T05:58:57.314Z,89.47
2023-05-14T05:59:57.301Z,91.47
2023-05-14T06:00:57.292Z,90.81
2023-05-14T06:01:57.305Z,89.18
2023-05-14T06:02:57.333Z,88.53
2023-05-14T06:03:57.259Z,88.43
2023-05-14T06:04:57.313Z,88.02
2023-05-14T06:05:57.247Z,88.84
2023-05-14T06:06:57.268Z,88.26
2023-05-14T06:07:57.224Z,89.30
2023-05-14T06:08:57.226Z,86.15
2023-05-14T06:09:57.221Z,87.23
2023-05-14T06:10:57.228Z,86.51
2023-05-14T06:11:57.212Z,86.41
2023-05-14T06:12:57.225Z,86.15
2023-05-14T06:13:57.194Z,87.77
2023-05-14T06:14:57.196Z,86.65
2023-05-14T06:15:57.157Z,88.08
2023-05-14T06:16:57.206Z,84.47
2023-05-14T06:17:57.192Z,85.60
2023-05-14T06:18:57.188Z,86.10
2023-05-14T06:19:57.136Z,84.67
2023-05-14T06:20:57.168Z,86.16
2023-05-14T06:21:57.110Z,86.27
2023-05-14T06:22:57.118Z,86.08
2023-05-14T06:23:57.110Z,84.59
2023-05-14T06:24:57.108Z,86.27
2023-05-14T06:25:57.092Z,84.59
2023-05-14T06:26:57.122Z,83.84
2023-05-14T06:27:57.093Z,83.81
2023-05-14T06:28:57.113Z,81.87
2023-05-14T06:29:57.071Z,81.93
2023-05-14T06:30:57.069Z,81.39
2023-05-14T06:31:57.171Z,80.64
2023-05-14T06:32:57.081Z,80.80
2023-05-14T06:33:57.036Z,79.96
2023-05-14T06:34:57.048Z,78.50
2023-05-14T06:35:57.011Z,78.09
2023-05-14T06:36:57.026Z,78.30
2023-05-14T06:37:57.017Z,77.65
2023-05-14T06:38:57.015Z,76.60
2023-05-14T06:39:57.854Z,76.87
2023-05-14T06:40:56.979Z,76.46
2023-05-14T06:41:56.962Z,76.80
2023-05-14T06:42:56.992Z,74.98
2023-05-14T06:43:56.956Z,77.01
2023-05-14T06:44:56.943Z,76.73
2023-05-14T06:45:56.926Z,74.20
2023-05-14T06:46:56.929Z,74.30
2023-05-14T06:47:57.044Z,74.37
2023-05-14T06:48:59.348Z,74.03
2023-05-14T06:49:56.882Z,71.67
2023-05-14T06:50:56.910Z,72.04
2023-05-14T06:51:56.875Z,69.95
2023-05-14T06:52:56.883Z,72.34
2023-05-14T06:53:56.863Z,68.91
2023-05-14T06:54:56.881Z,69.11
2023-05-14T06:55:56.863Z,65.55
2023-05-14T06:56:56.838Z,69.42
2023-05-14T06:57:56.848Z,68.77
2023-05-14T06:58:56.860Z,66.03
2023-05-14T06:59:56.813Z,63.19
2023-05-14T07:00:56.834Z,61.72
2023-05-14T07:01:56.905Z,58.56
2023-05-14T07:02:56.825Z,60.29
2023-05-14T07:03:56.873Z,61.52
2023-05-14T07:04:56.800Z,60.62
2023-05-14T07:05:56.760Z,62.18
2023-05-14T07:06:56.831Z,65.35
2023-05-14T07:07:56.747Z,66.09
2023-05-14T07:08:56.748Z,63.89
2023-05-14T07:09:56.753Z,61.66
2023-05-14T07:10:56.740Z,61.80
2023-05-14T07:11:56.725Z,59.08
2023-05-14T07:12:56.736Z,56.26
2023-05-14T07:13:56.706Z,58.90
2023-05-14T07:14:56.705Z,60.71
2023-05-14T07:15:56.679Z,58.31
2023-05-14T07:16:56.726Z,57.98
2023-05-14T07:17:56.723Z,58.29
2023-05-14T07:18:56.728Z,58.23
2023-05-14T07:19:56.657Z,56.65
2023-05-14T07:20:56.659Z,58.40
2023-05-14T07:21:56.650Z,56.02
2023-05-14T07:22:56.662Z,56.46
2023-05-14T07:23:56.623Z,56.79
2023-05-14T07:24:56.653Z,54.62
2023-05-14T07:25:56.622Z,56.37
2023-05-14T07:26:56.620Z,57.46
2023-05-14T07:27:56.598Z,56.33
2023-05-14T07:28:56.598Z,56.00
2023-05-14T07:29:56.591Z,56.56
2023-05-14T07:30:56.664Z,56.38
2023-05-14T07:31:56.583Z,56.51
2023-05-14T07:32:56.614Z,59.17
2023-05-14T07:33:56.591Z,60.71
2023-05-14T07:34:56.588Z,61.46
2023-05-14T07:35:56.551Z,57.96
2023-05-14T07:36:56.554Z,56.91
2023-05-14T07:37:56.539Z,59.25
2023-05-14T07:38:56.575Z,59.60
2023-05-14T07:39:56.516Z,58.99
2023-05-14T07:40:56.545Z,56.30
2023-05-14T07:41:56.497Z,54.93
2023-05-14T07:42:56.508Z,56.21
2023-05-14T07:43:56.524Z,56.65
2023-05-14T07:44:56.511Z,56.38
2023-05-14T07:45:56.504Z,56.23
2023-05-14T07:46:56.528Z,60.91
2023-05-14T07:47:56.606Z,56.56
2023-05-14T07:48:56.480Z,58.25
2023-05-14T07:49:56.477Z,61.50
2023-05-14T07:50:56.471Z,61.33
2023-05-14T07:51:56.474Z,61.93
2023-05-14T07:52:56.449Z,59.75
2023-05-14T07:53:56.415Z,61.54
2023-05-14T07:54:56.434Z,61.46
2023-05-14T07:55:56.402Z,62.93
2023-05-14T07:56:56.427Z,64.07
2023-05-14T07:57:56.393Z,67.13
2023-05-14T07:58:56.433Z,63.22
2023-05-14T07:59:56.389Z,65.07
2023-05-14T08:00:56.383Z,64.94
2023-05-14T08:01:56.401Z,65.41
2023-05-14T08:02:56.566Z,62.40
2023-05-14T08:03:56.433Z,58.35
2023-05-14T08:04:56.362Z,57.79
2023-05-14T08:05:56.345Z,56.79
2023-05-14T08:06:56.347Z,55.43
2023-05-14T08:07:56.329Z,56.01
2023-05-14T08:08:56.344Z,56.36
2023-05-14T08:09:56.311Z,53.30
2023-05-14T08:10:56.342Z,55.08
2023-05-14T08:11:56.304Z,56.63
2023-05-14T08:12:56.311Z,54.64
2023-05-14T08:13:56.301Z,54.05
2023-05-14T08:14:56.327Z,54.05
2023-05-14T08:15:56.275Z,55.02
2023-05-14T08:16:56.340Z,54.07
2023-05-14T08:17:56.280Z,54.30
2023-05-14T08:18:56.323Z,54.50
2023-05-14T08:19:56.248Z,52.87
2023-05-14T08:20:56.276Z,54.05
2023-05-14T08:21:56.257Z,52.69
2023-05-14T08:22:56.239Z,50.96
2023-05-14T08:23:56.257Z,54.50
2023-05-14T08:24:56.238Z,53.59
2023-05-14T08:25:56.204Z,55.20
2023-05-14T08:26:56.241Z,55.02
2023-05-14T08:27:56.190Z,51.44
2023-05-14T08:28:56.219Z,52.77
2023-05-14T08:29:56.185Z,51.07
2023-05-14T08:30:56.274Z,52.84
2023-05-14T08:31:56.168Z,52.69
2023-05-14T08:32:56.195Z,49.49
2023-05-14T08:33:56.189Z,51.50
2023-05-14T08:34:56.143Z,49.52
2023-05-14T08:35:56.135Z,51.44
2023-05-14T08:36:56.141Z,50.76
2023-05-14T08:37:56.107Z,53.09
2023-05-14T08:38:56.168Z,54.93
2023-05-14T08:39:56.195Z,54.65
2023-05-14T08:40:56.114Z,57.02
2023-05-14T08:41:56.140Z,56.49
2023-05-14T08:42:56.135Z,53.92
2023-05-14T08:43:56.101Z,52.80
2023-05-14T08:44:56.101Z,50.62
2023-05-14T08:45:56.063Z,52.04
2023-05-14T08:46:56.093Z,51.89
2023-05-14T08:47:56.144Z,53.25
2023-05-14T08:48:56.112Z,58.15
2023-05-14T08:49:56.054Z,58.07
2023-05-14T08:50:56.073Z,56.82
2023-05-14T08:51:56.005Z,56.21
2023-05-14T08:52:56.056Z,53.27
2023-05-14T08:53:55.990Z,54.38
2023-05-14T08:54:56.022Z,53.12
2023-05-14T08:55:56.040Z,53.77
2023-05-14T08:56:56.019Z,55.23
2023-05-14T08:57:55.964Z,54.98
2023-05-14T08:58:55.980Z,56.51
2023-05-14T08:59:55.950Z,55.93
2023-05-14T09:00:55.954Z,56.93
2023-05-14T09:01:56.038Z,52.67
2023-05-14T09:02:55.966Z,48.90
2023-05-14T09:03:56.013Z,49.72
2023-05-14T09:04:55.952Z,50.84
2023-05-14T09:05:56.715Z,51.27
2023-05-14T09:06:55.945Z,55.13
2023-05-14T09:07:55.897Z,50.94
2023-05-14T09:08:55.943Z,51.77
2023-05-14T09:09:55.897Z,49.10
2023-05-14T09:10:55.916Z,47.61
2023-05-14T09:11:55.874Z,45.95
2023-05-14T09:12:55.875Z,48.11
2023-05-14T09:13:55.858Z,46.47
2023-05-14T09:14:55.900Z,47.19
2023-05-14T09:15:55.896Z,47.37
2023-05-14T09:16:55.833Z,47.84
2023-05-14T09:17:55.883Z,50.57
2023-05-14T09:18:55.875Z,49.05
2023-05-14T09:19:55.818Z,48.32
2023-05-14T09:20:55.838Z,49.57
2023-05-14T09:21:55.846Z,51.87
2023-05-14T09:22:55.844Z,52.64
2023-05-14T09:23:55.763Z,50.96
2023-05-14T09:24:55.809Z,52.09
2023-05-14T09:25:55.762Z,49.46
2023-05-14T09:26:55.774Z,51.25
2023-05-14T09:27:57.953Z,49.72
2023-05-14T09:28:55.760Z,47.87
2023-05-14T09:29:55.730Z,48.47
2023-05-14T09:30:55.754Z,50.32
2023-05-14T09:31:55.784Z,51.64
2023-05-14T09:32:55.819Z,54.17
2023-05-14T09:33:55.704Z,54.63
2023-05-14T09:34:55.720Z,54.85
2023-05-14T09:35:57.675Z,56.76
2023-05-14T09:36:55.722Z,56.38
2023-05-14T09:37:55.675Z,56.49
2023-05-14T09:38:55.684Z,55.26
2023-05-14T09:39:55.672Z,54.10
2023-05-14T09:40:55.711Z,54.58
2023-05-14T09:41:55.644Z,54.35
2023-05-14T09:42:55.671Z,56.38
2023-05-14T09:43:55.659Z,56.89
2023-05-14T09:44:55.649Z,56.31
2023-05-14T09:45:55.612Z,56.38
2023-05-14T09:46:55.680Z,58.09
2023-05-14T09:47:55.799Z,54.53
2023-05-14T09:48:55.620Z,53.45
2023-05-14T09:49:55.590Z,56.29
2023-05-14T09:50:55.627Z,56.62
2023-05-14T09:51:55.570Z,54.80
2023-05-14T09:52:55.592Z,57.95
2023-05-14T09:53:55.613Z,55.26
2023-05-14T09:54:55.576Z,56.34
2023-05-14T09:55:55.547Z,55.99
2023-05-14T09:56:55.971Z,53.77
2023-05-14T09:57:55.526Z,53.65
2023-05-14T09:58:55.545Z,53.55
2023-05-14T09:59:55.546Z,52.77
2023-05-14T10:00:55.552Z,52.84
2023-05-14T10:01:55.496Z,49.34
2023-05-14T10:02:55.537Z,53.19
2023-05-14T10:03:55.530Z,53.09
2023-05-14T10:04:55.522Z,55.30
2023-05-14T10:05:55.512Z,52.69
2023-05-14T10:06:55.492Z,53.22
2023-05-14T10:07:55.460Z,54.58
2023-05-14T10:08:55.475Z,54.75
2023-05-14T10:09:57.185Z,54.58
2023-05-14T10:10:55.455Z,53.32
2023-05-14T10:11:55.426Z,54.20
2023-05-14T10:12:55.459Z,53.22
2023-05-14T10:13:55.434Z,54.55
2023-05-14T10:14:55.443Z,54.65
2023-05-14T10:15:55.400Z,57.94
2023-05-14T10:16:55.462Z,54.28
2023-05-14T10:17:55.449Z,56.89
2023-05-14T10:18:57.317Z,54.25
2023-05-14T10:19:55.369Z,54.88
2023-05-14T10:20:55.378Z,53.40
2023-05-14T10:21:55.369Z,54.68
2023-05-14T10:22:55.381Z,50.67
2023-05-14T10:23:55.357Z,52.97
2023-05-14T10:24:55.398Z,50.81
2023-05-14T10:25:55.343Z,53.00
2023-05-14T10:26:55.340Z,52.94
2023-05-14T10:27:55.324Z,54.25
2023-05-14T10:28:55.324Z,55.73
2023-05-14T10:29:55.349Z,55.93
2023-05-14T10:30:55.317Z,55.33
2023-05-14T10:31:55.279Z,56.74
2023-05-14T10:32:55.350Z,54.78
2023-05-14T10:33:55.272Z,53.37
2023-05-14T10:34:55.283Z,54.80
2023-05-14T10:35:55.276Z,50.49
2023-05-14T10:36:55.274Z,48.22
2023-05-14T10:37:55.260Z,47.89
2023-05-14T10:38:55.268Z,47.34
2023-05-14T10:39:55.232Z,48.02
2023-05-14T10:40:55.236Z,48.75
2023-05-14T10:41:55.218Z,47.89
2023-05-14T10:42:55.218Z,51.21
2023-05-14T10:43:55.231Z,51.34
2023-05-14T10:44:55.235Z,51.74
2023-05-14T10:45:55.192Z,52.67
2023-05-14T10:46:55.243Z,54.10
2023-05-14T10:47:55.260Z,53.97
2023-05-14T10:48:55.196Z,53.47
2023-05-14T10:49:55.153Z,53.25
2023-05-14T10:50:55.205Z,54.07
2023-05-14T10:51:55.157Z,54.70
2023-05-14T10:52:55.199Z,54.47
2023-05-14T10:53:55.159Z,53.25
2023-05-14T10:54:55.141Z,54.65
2023-05-14T10:55:55.121Z,54.45
2023-05-14T10:56:55.121Z,53.20
2023-05-14T10:57:55.137Z,54.28
2023-05-14T10:58:55.101Z,54.28
2023-05-14T10:59:55.176Z,55.08
2023-05-14T11:00:55.103Z,54.83
2023-05-14T11:01:55.162Z,55.13
2023-05-14T11:02:55.170Z,54.50
2023-05-14T11:03:55.163Z,52.14
2023-05-14T11:04:55.063Z,51.04
2023-05-14T11:05:55.067Z,52.32
2023-05-14T11:06:55.070Z,50.84
2023-05-14T11:07:55.032Z,51.94
2023-05-14T11:08:55.045Z,51.12
2023-05-14T11:09:55.015Z,51.44
2023-05-14T11:10:55.036Z,53.55
2023-05-14T11:11:55.010Z,49.91
2023-05-14T11:12:55.021Z,49.11
2023-05-14T11:13:55.037Z,54.60
2023-05-14T11:14:54.989Z,49.49
2023-05-14T11:15:54.978Z,50.64
2023-05-14T11:16:55.000Z,51.01
2023-05-14T11:17:54.988Z,49.79
2023-05-14T11:18:55.300Z,49.46
2023-05-14T11:19:54.946Z,48.99
2023-05-14T11:20:54.953Z,47.61
2023-05-14T11:21:54.979Z,48.11
2023-05-14T11:22:54.946Z,48.90
2023-05-14T11:23:54.963Z,48.42
2023-05-14T11:24:54.951Z,48.67
2023-05-14T11:25:54.978Z,52.00
2023-05-14T11:26:54.915Z,48.60
2023-05-14T11:27:54.904Z,48.75
2023-05-14T11:28:54.907Z,49.07
2023-05-14T11:29:54.867Z,49.00
2023-05-14T11:30:54.916Z,47.55
2023-05-14T11:31:54.865Z,49.15
2023-05-14T11:32:54.934Z,46.53
2023-05-14T11:33:54.883Z,48.29
2023-05-14T11:34:54.866Z,48.97
2023-05-14T11:35:54.838Z,50.35
2023-05-14T11:36:54.857Z,48.37
2023-05-14T11:37:54.825Z,50.59
2023-05-14T11:38:54.860Z,46.69
2023-05-14T11:39:54.807Z,50.89
2023-05-14T11:40:54.816Z,54.39
2023-05-14T11:41:54.781Z,50.74
2023-05-14T11:42:54.790Z,50.89
2023-05-14T11:43:54.777Z,51.69
2023-05-14T11:44:54.803Z,50.39
2023-05-14T11:45:54.775Z,48.19
2023-05-14T11:46:54.773Z,50.04
2023-05-14T11:47:54.831Z,50.54
2023-05-14T11:48:54.771Z,51.01
2023-05-14T11:49:54.742Z,49.81
2023-05-14T11:50:54.745Z,49.91
2023-05-14T11:51:54.709Z,51.39
2023-05-14T11:52:54.761Z,53.77
2023-05-14T11:53:54.744Z,50.86
2023-05-14T11:54:54.722Z,52.87
2023-05-14T11:55:54.690Z,53.85
2023-05-14T11:56:54.691Z,52.62
2023-05-14T11:57:54.684Z,51.12
2023-05-14T11:58:54.677Z,49.81
2023-05-14T11:59:54.693Z,49.66
2023-05-14T12:00:54.654Z,49.43
2023-05-14T12:01:54.668Z,51.24
2023-05-14T12:02:54.712Z,48.53
2023-05-14T12:03:54.678Z,50.04
2023-05-14T12:04:54.679Z,51.21
2023-05-14T12:05:54.635Z,52.72
2023-05-14T12:06:54.615Z,50.79
2023-05-14T12:07:54.598Z,48.51
2023-05-14T12:08:54.618Z,52.67
2023-05-14T12:09:54.587Z,51.74
2023-05-14T12:10:54.624Z,50.71
2023-05-14T12:11:54.574Z,48.07
2023-05-14T12:12:54.631Z,48.07
2023-05-14T12:13:54.557Z,48.36
2023-05-14T12:14:54.557Z,48.99
2023-05-14T12:15:54.593Z,48.21
2023-05-14T12:16:54.574Z,48.28
2023-05-14T12:17:54.573Z,52.47
2023-05-14T12:18:54.570Z,50.63
2023-05-14T12:19:54.518Z,48.83
2023-05-14T12:20:54.558Z,48.61
2023-05-14T12:21:54.534Z,48.38
2023-05-14T12:22:54.516Z,48.31
2023-05-14T12:23:54.497Z,51.32
2023-05-14T12:24:54.540Z,53.75
2023-05-14T12:25:54.493Z,51.92
2023-05-14T12:26:54.540Z,55.90
2023-05-14T12:27:54.470Z,49.41
2023-05-14T12:28:54.490Z,52.12
2023-05-14T12:29:54.454Z,51.72
2023-05-14T12:30:54.459Z,54.70
2023-05-14T12:31:54.470Z,52.89
2023-05-14T12:32:54.573Z,48.86
2023-05-14T12:33:54.423Z,52.57
2023-05-14T12:34:54.473Z,49.14
2023-05-14T12:35:54.446Z,52.47
2023-05-14T12:36:54.442Z,49.46
2023-05-14T12:37:54.425Z,48.83
2023-05-14T12:38:54.451Z,51.14
2023-05-14T12:39:54.379Z,52.34
2023-05-14T12:40:54.398Z,51.99
2023-05-14T12:41:54.371Z,53.34
2023-05-14T12:42:56.577Z,54.43
2023-05-14T12:43:54.394Z,50.01
2023-05-14T12:44:54.366Z,53.02
2023-05-14T12:45:54.398Z,53.90
2023-05-14T12:46:54.415Z,53.72
2023-05-14T12:47:54.366Z,56.93
2023-05-14T12:48:54.352Z,56.30
2023-05-14T12:49:54.314Z,57.04
2023-05-14T12:50:54.361Z,58.75
2023-05-14T12:52:03.176Z,67.21
2023-05-14T12:52:55.370Z,62.69